createdAt,value
2023-05-03T00:00:09.186Z,101129.40
2023-05-03T00:05:32.457Z,101126.20
2023-05-03T00:10:35.725Z,101124.40
2023-05-03T00:15:38.872Z,101131.60
2023-05-03T00:20:42.335Z,101125.20
2023-05-03T00:25:45.402Z,101127.80
2023-05-03T00:30:48.724Z,101136.40
2023-05-03T00:35:51.864Z,101140.80
2023-05-03T00:40:55.215Z,101139.20
2023-05-03T00:46:12.319Z,101132.00
2023-05-03T00:51:21.056Z,101132.40
2023-05-03T00:56:24.462Z,101136.80
2023-05-03T01:01:29.322Z,101144.20
2023-05-03T01:06:38.217Z,101147.40
2023-05-03T01:11:55.555Z,101147.00
2023-05-03T01:17:11.204Z,101140.80
2023-05-03T01:23:07.809Z,101135.80
2023-05-03T01:28:10.962Z,101137.40
2023-05-03T01:33:31.739Z,101144.20
2023-05-03T01:38:37.873Z,101149.60
2023-05-03T01:43:42.074Z,101147.00
2023-05-03T01:48:48.405Z,101145.80
2023-05-03T01:53:51.512Z,101155.20
2023-05-03T01:58:54.621Z,101159.60
2023-05-03T02:03:57.638Z,101159.80
2023-05-03T02:09:00.891Z,101155.80
2023-05-03T02:14:03.909Z,101152.80
2023-05-03T02:19:08.580Z,101153.60
2023-05-03T02:24:11.801Z,101156.20
2023-05-03T02:29:17.367Z,101157.60
2023-05-03T02:34:20.910Z,101159.40
2023-05-03T02:39:24.257Z,101160.00
2023-05-03T02:44:27.208Z,101164.60
2023-05-03T02:49:36.223Z,101170.80
2023-05-03T02:54:42.148Z,101168.80
2023-05-03T02:59:47.662Z,101166.40
2023-05-03T03:04:51.230Z,101169.60
2023-05-03T03:10:01.983Z,101168.00
2023-05-03T03:15:06.251Z,101170.60
2023-05-03T03:20:12.956Z,101172.20
2023-05-03T03:25:16.173Z,101179.40
2023-05-03T03:30:19.298Z,101181.80
2023-05-03T03:35:23.164Z,101185.40
2023-05-03T03:40:29.076Z,101183.80
2023-05-03T03:45:32.291Z,101179.40
2023-05-03T03:50:36.768Z,101186.60
2023-05-03T03:55:39.800Z,101184.80
2023-05-03T04:00:42.953Z,101193.00
2023-05-03T04:05:46.113Z,101200.40
2023-05-03T04:10:49.018Z,101205.00
2023-05-03T04:15:56.244Z,101203.20
2023-05-03T04:20:59.577Z,101205.40
2023-05-03T04:26:03.356Z,101211.60
2023-05-03T04:31:08.282Z,101208.60
2023-05-03T04:36:15.349Z,101201.20
2023-05-03T04:41:18.265Z,101210.00
2023-05-03T04:46:21.608Z,101208.80
2023-05-03T04:51:24.615Z,101219.20
2023-05-03T04:56:27.880Z,101227.20
2023-05-03T05:01:31.010Z,101228.60
2023-05-03T05:06:34.024Z,101238.80
2023-05-03T05:11:36.997Z,101250.80
2023-05-03T05:16:40.052Z,101249.80
2023-05-03T05:21:43.048Z,101256.00
2023-05-03T05:26:46.306Z,101262.00
2023-05-03T05:32:24.159Z,101266.00
2023-05-03T05:42:51.526Z,101283.20
2023-05-03T05:47:54.751Z,101285.60
2023-05-03T05:52:58.138Z,101280.00
2023-05-03T05:58:01.359Z,101279.80
2023-05-03T06:03:05.957Z,101288.60
2023-05-03T06:08:09.307Z,101297.20
2023-05-03T06:13:12.483Z,101299.80
2023-05-03T06:18:15.795Z,101306.60
2023-05-03T06:23:18.755Z,101310.60
2023-05-03T06:28:21.743Z,101323.20
2023-05-03T06:33:24.721Z,101327.80
2023-05-03T06:38:27.704Z,101328.40
2023-05-03T06:43:30.633Z,101329.80
2023-05-03T06:48:33.717Z,101322.00
2023-05-03T06:53:36.656Z,101314.00
2023-05-03T06:58:39.656Z,101311.20
2023-05-03T07:03:42.627Z,101312.80
2023-05-03T07:08:45.947Z,101312.00
2023-05-03T07:13:49.496Z,101317.00
2023-05-03T07:18:52.346Z,101323.00
2023-05-03T07:23:55.520Z,101323.60
2023-05-03T07:28:58.426Z,101319.40
2023-05-03T07:34:01.428Z,101317.00
2023-05-03T07:39:05.135Z,101320.60
2023-05-03T07:44:08.257Z,101316.80
2023-05-03T07:49:11.229Z,101325.60
2023-05-03T07:54:14.226Z,101324.20
2023-05-03T07:59:17.168Z,101318.60
2023-05-03T08:04:20.295Z,101319.60
2023-05-03T08:09:23.890Z,101322.00
2023-05-03T08:14:28.051Z,101325.00
2023-05-03T08:19:31.261Z,101320.00
2023-05-03T08:24:35.196Z,101321.80
2023-05-03T08:29:38.380Z,101324.40
2023-05-03T08:34:41.910Z,101330.20
2023-05-03T08:39:45.181Z,101334.60
2023-05-03T08:44:49.526Z,101339.20
2023-05-03T08:49:57.102Z,101334.40
2023-05-03T08:55:00.237Z,101342.60
2023-05-03T09:00:11.020Z,101335.00
2023-05-03T09:05:17.025Z,101345.20
2023-05-03T09:10:24.651Z,101346.80
2023-05-03T09:15:32.148Z,101360.40
2023-05-03T09:20:37.160Z,101361.40
2023-05-03T09:25:45.110Z,101362.60
2023-05-03T09:30:49.683Z,101356.00
2023-05-03T09:36:02.853Z,101357.40
2023-05-03T09:41:06.386Z,101365.20
2023-05-03T09:46:12.353Z,101366.00
2023-05-03T09:51:16.891Z,101353.80
2023-05-03T09:56:22.766Z,101359.40
2023-05-03T10:01:25.956Z,101367.80
2023-05-03T10:06:38.329Z,101359.00
2023-05-03T10:11:51.798Z,101360.80
2023-05-03T10:17:03.851Z,101368.80
2023-05-03T10:22:10.036Z,101375.60
2023-05-03T10:27:13.870Z,101364.20
2023-05-03T10:32:52.304Z,101358.80
2023-05-03T10:37:57.123Z,101363.00
2023-05-03T10:43:00.948Z,101362.80
2023-05-03T10:48:13.069Z,101359.80
2023-05-03T10:53:50.108Z,101367.40
2023-05-03T10:59:14.409Z,101376.00
2023-05-03T11:04:46.375Z,101365.20
2023-05-03T11:09:50.097Z,101359.40
2023-05-03T11:14:53.304Z,101365.20
2023-05-03T11:20:15.512Z,101373.40
2023-05-03T11:25:30.319Z,101387.00
2023-05-03T11:30:38.551Z,101377.00
2023-05-03T11:35:42.470Z,101376.00
2023-05-03T11:40:53.148Z,101376.20
2023-05-03T11:46:01.481Z,101381.80
2023-05-03T11:51:12.133Z,101376.60
2023-05-03T11:56:17.995Z,101374.20
2023-05-03T12:01:31.123Z,101369.60
2023-05-03T12:06:36.401Z,101381.40
2023-05-03T12:11:43.658Z,101391.40
2023-05-03T12:16:53.434Z,101386.20
2023-05-03T12:22:18.122Z,101388.80
2023-05-03T12:27:22.066Z,101399.00
2023-05-03T12:32:30.179Z,101396.00
2023-05-03T12:37:33.618Z,101392.20
2023-05-03T12:42:37.364Z,101395.60
2023-05-03T12:47:44.484Z,101398.00
2023-05-03T12:52:52.383Z,101404.20
2023-05-03T12:58:18.243Z,101400.60
2023-05-03T13:03:32.488Z,101397.20
2023-05-03T13:08:48.312Z,101403.60
2023-05-03T13:13:53.521Z,101400.80
2023-05-03T13:18:57.008Z,101391.80
2023-05-03T13:23:59.963Z,101385.20
2023-05-03T13:29:03.286Z,101376.60
2023-05-03T13:34:06.904Z,101380.60
2023-05-03T13:39:10.605Z,101374.40
2023-05-03T13:44:13.866Z,101369.00
2023-05-03T13:49:16.933Z,101359.20
2023-05-03T13:54:21.154Z,101362.20
2023-05-03T13:59:24.650Z,101364.20
2023-05-03T14:04:27.683Z,101358.80
2023-05-03T14:09:31.088Z,101352.60
2023-05-03T14:14:34.580Z,101357.20
2023-05-03T14:19:37.673Z,101362.20
2023-05-03T14:24:42.705Z,101359.80
2023-05-03T14:29:47.032Z,101367.60
2023-05-03T14:34:50.227Z,101368.20
2023-05-03T14:39:53.205Z,101368.60
2023-05-03T14:44:56.348Z,101367.00
2023-05-03T14:49:59.462Z,101373.80
2023-05-03T14:55:02.789Z,101378.40
2023-05-03T15:00:14.290Z,101380.00
2023-05-03T15:05:17.729Z,101373.60
2023-05-03T15:10:21.187Z,101369.80
2023-05-03T15:15:24.318Z,101378.20
2023-05-03T15:20:27.513Z,101371.00
2023-05-03T15:25:30.906Z,101369.20
2023-05-03T15:30:34.074Z,101377.60
2023-05-03T15:35:40.447Z,101371.80
2023-05-03T15:40:43.955Z,101365.40
2023-05-03T15:45:47.940Z,101377.60
2023-05-03T15:50:51.148Z,101385.40
2023-05-03T15:55:57.500Z,101389.40
2023-05-03T16:01:00.728Z,101387.80
2023-05-03T16:06:04.206Z,101383.80
2023-05-03T16:11:08.288Z,101384.20
2023-05-03T16:16:11.861Z,101375.60
2023-05-03T16:21:16.988Z,101381.00
2023-05-03T16:26:19.982Z,101378.20
2023-05-03T16:31:23.209Z,101382.40
2023-05-03T16:36:26.392Z,101385.20
2023-05-03T16:41:29.521Z,101382.80
2023-05-03T16:46:34.835Z,101385.60
2023-05-03T16:51:38.040Z,101382.00
2023-05-03T16:56:41.102Z,101391.20
2023-05-03T17:01:44.514Z,101385.60
2023-05-03T17:06:47.618Z,101388.60
2023-05-03T17:11:50.653Z,101387.60
2023-05-03T17:16:53.841Z,101388.40
2023-05-03T17:21:56.842Z,101387.40
2023-05-03T17:27:00.147Z,101386.00
2023-05-03T17:32:03.980Z,101389.00
2023-05-03T17:37:07.331Z,101393.40
2023-05-03T17:42:10.351Z,101395.80
2023-05-03T17:47:13.777Z,101396.40
2023-05-03T17:52:17.310Z,101397.20
2023-05-03T17:57:23.294Z,101396.20
2023-05-03T18:02:26.403Z,101392.80
2023-05-03T18:07:33.108Z,101394.80
2023-05-03T18:12:36.267Z,101403.40
2023-05-03T18:17:39.417Z,101409.60
2023-05-03T18:22:42.887Z,101406.00
2023-05-03T18:27:46.126Z,101406.20
2023-05-03T18:32:49.351Z,101414.40
2023-05-03T18:37:53.264Z,101422.80
2023-05-03T18:42:56.797Z,101423.20
2023-05-03T18:47:59.803Z,101430.00
2023-05-03T18:53:04.315Z,101442.00
2023-05-03T18:58:07.494Z,101435.20
2023-05-03T19:03:11.112Z,101443.60
2023-05-03T19:08:14.515Z,101445.80
2023-05-03T19:13:17.713Z,101447.80
2023-05-03T19:18:20.644Z,101447.60
2023-05-03T19:23:24.151Z,101448.80
2023-05-03T19:28:27.095Z,101454.80
2023-05-03T19:33:30.043Z,101452.60
2023-05-03T19:38:36.119Z,101454.60
2023-05-03T19:43:40.173Z,101452.80
2023-05-03T19:48:43.812Z,101447.40
2023-05-03T19:53:48.911Z,101454.00
2023-05-03T19:58:53.823Z,101453.40
2023-05-03T20:03:58.333Z,101453.40
2023-05-03T20:09:03.155Z,101456.60
2023-05-03T20:14:08.540Z,101457.20
2023-05-03T20:19:11.807Z,101456.40
2023-05-03T20:24:15.038Z,101457.80
2023-05-03T20:29:18.302Z,101460.40
2023-05-03T20:34:21.387Z,101464.60
2023-05-03T20:39:24.479Z,101461.60
2023-05-03T20:44:27.496Z,101461.60
2023-05-03T20:49:32.884Z,101463.00
2023-05-03T20:54:37.439Z,101460.60
2023-05-03T20:59:40.454Z,101458.40
2023-05-03T21:04:43.374Z,101458.60
2023-05-03T21:09:46.279Z,101460.00
2023-05-03T21:14:49.137Z,101453.60
2023-05-03T21:19:54.609Z,101459.60
2023-05-03T21:24:57.774Z,101467.20
2023-05-03T21:30:01.832Z,101469.60
2023-05-03T21:35:05.555Z,101469.00
2023-05-03T21:40:09.398Z,101467.20
2023-05-03T21:45:12.678Z,101468.20
2023-05-03T21:50:15.632Z,101468.60
2023-05-03T21:55:18.808Z,101469.40
2023-05-03T22:00:22.437Z,101466.40
2023-05-03T22:05:25.370Z,101468.40
2023-05-03T22:10:28.229Z,101471.20
2023-05-03T22:15:32.247Z,101475.00
2023-05-03T22:20:35.322Z,101471.60
2023-05-03T22:25:38.119Z,101466.40
2023-05-03T22:30:41.769Z,101467.00
2023-05-03T22:35:44.580Z,101472.20
2023-05-03T22:40:47.513Z,101470.00
2023-05-03T22:45:50.408Z,101470.00
2023-05-03T22:50:53.319Z,101469.60
2023-05-03T22:56:01.610Z,101466.20
2023-05-03T23:01:10.416Z,101462.80
2023-05-03T23:06:13.926Z,101458.20
2023-05-03T23:11:16.746Z,101451.60
2023-05-03T23:16:20.617Z,101451.40
2023-05-03T23:21:23.823Z,101444.20
2023-05-03T23:26:28.082Z,101445.60
2023-05-03T23:31:31.605Z,101452.20
2023-05-03T23:36:36.402Z,101452.40
2023-05-03T23:41:39.240Z,101446.80
2023-05-03T23:46:42.098Z,101445.00
2023-05-03T23:51:45.088Z,101439.20
2023-05-03T23:56:47.938Z,101440.20
